sensor_id;sensor_type;location;lat;lon;timestamp;P1;durP1;ratioP1;P2;durP2;ratioP2
7338;SDS011;33747;49.524;8.390;2022-09-28T00:00:29;4.20;;;1.40;;
7338;SDS011;33747;49.524;8.390;2022-09-28T00:02:55;1.63;;;1.08;;
7338;SDS011;33747;49.524;8.390;2022-09-28T00:05:21;1.25;;;1.08;;
7338;SDS011;33747;49.524;8.390;2022-09-28T00:07:53;3.45;;;1.30;;
7338;SDS011;33747;49.524;8.390;2022-09-28T00:10:18;1.88;;;0.95;;
7338;SDS011;33747;49.524;8.390;2022-09-28T00:12:46;1.88;;;1.25;;
7338;SDS011;33747;49.524;8.390;2022-09-28T00:15:12;3.60;;;1.20;;
7338;SDS011;33747;49.524;8.390;2022-09-28T00:17:37;3.00;;;1.50;;
7338;SDS011;33747;49.524;8.390;2022-09-28T00:20:03;3.47;;;1.33;;
7338;SDS011;33747;49.524;8.390;2022-09-28T00:22:29;2.25;;;1.02;;
7338;SDS011;33747;49.524;8.390;2022-09-28T00:24:56;4.07;;;1.23;;
7338;SDS011;33747;49.524;8.390;2022-09-28T00:27:21;3.25;;;1.67;;
7338;SDS011;33747;49.524;8.390;2022-09-28T00:29:46;1.83;;;1.25;;
7338;SDS011;33747;49.524;8.390;2022-09-28T00:32:12;3.50;;;1.40;;
7338;SDS011;33747;49.524;8.390;2022-09-28T00:34:39;3.55;;;1.50;;
7338;SDS011;33747;49.524;8.390;2022-09-28T00:37:07;3.03;;;1.60;;
7338;SDS011;33747;49.524;8.390;2022-09-28T00:39:33;3.50;;;1.30;;
7338;SDS011;33747;49.524;8.390;2022-09-28T00:42:00;2.45;;;1.60;;
7338;SDS011;33747;49.524;8.390;2022-09-28T00:44:39;3.78;;;1.38;;
7338;SDS011;33747;49.524;8.390;2022-09-28T00:50:13;5.78;;;1.33;;
7338;SDS011;33747;49.524;8.390;2022-09-28T00:55:33;2.47;;;0.90;;
7338;SDS011;33747;49.524;8.390;2022-09-28T00:58:03;5.50;;;1.40;;
7338;SDS011;33747;49.524;8.390;2022-09-28T01:00:29;2.30;;;1.10;;
7338;SDS011;33747;49.524;8.390;2022-09-28T01:02:55;2.78;;;1.33;;
7338;SDS011;33747;49.524;8.390;2022-09-28T01:05:21;2.45;;;1.20;;
7338;SDS011;33747;49.524;8.390;2022-09-28T01:07:48;4.75;;;1.25;;
7338;SDS011;33747;49.524;8.390;2022-09-28T01:10:13;2.90;;;1.25;;
7338;SDS011;33747;49.524;8.390;2022-09-28T01:12:40;2.60;;;1.00;;
7338;SDS011;33747;49.524;8.390;2022-09-28T01:15:05;1.40;;;1.05;;
7338;SDS011;33747;49.524;8.390;2022-09-28T01:17:43;7.95;;;1.20;;
7338;SDS011;33747;49.524;8.390;2022-09-28T01:23:30;1.55;;;1.08;;
7338;SDS011;33747;49.524;8.390;2022-09-28T01:28:49;5.32;;;1.20;;
7338;SDS011;33747;49.524;8.390;2022-09-28T01:31:19;1.55;;;0.90;;
7338;SDS011;33747;49.524;8.390;2022-09-28T01:33:56;0.70;;;0.70;;
7338;SDS011;33747;49.524;8.390;2022-09-28T01:36:26;1.30;;;0.77;;
7338;SDS011;33747;49.524;8.390;2022-09-28T01:38:54;1.48;;;0.80;;
7338;SDS011;33747;49.524;8.390;2022-09-28T01:41:21;2.53;;;0.80;;
7338;SDS011;33747;49.524;8.390;2022-09-28T01:43:50;0.70;;;0.70;;
7338;SDS011;33747;49.524;8.390;2022-09-28T01:46:31;3.22;;;1.38;;
7338;SDS011;33747;49.524;8.390;2022-09-28T01:49:01;3.50;;;0.70;;
7338;SDS011;33747;49.524;8.390;2022-09-28T01:53:56;0.70;;;0.70;;
7338;SDS011;33747;49.524;8.390;2022-09-28T01:56:27;1.45;;;0.90;;
7338;SDS011;33747;49.524;8.390;2022-09-28T01:58:58;0.63;;;0.63;;
7338;SDS011;33747;49.524;8.390;2022-09-28T02:01:36;1.55;;;0.80;;
7338;SDS011;33747;49.524;8.390;2022-09-28T02:04:14;0.77;;;0.68;;
7338;SDS011;33747;49.524;8.390;2022-09-28T02:06:45;1.80;;;0.50;;
7338;SDS011;33747;49.524;8.390;2022-09-28T02:09:15;1.33;;;0.60;;
7338;SDS011;33747;49.524;8.390;2022-09-28T02:12:02;3.88;;;0.70;;
7338;SDS011;33747;49.524;8.390;2022-09-28T02:16:59;0.73;;;0.50;;
7338;SDS011;33747;49.524;8.390;2022-09-28T02:19:26;0.57;;;0.45;;
7338;SDS011;33747;49.524;8.390;2022-09-28T02:24:41;0.60;;;0.55;;
7338;SDS011;33747;49.524;8.390;2022-09-28T02:27:40;0.70;;;0.70;;
7338;SDS011;33747;49.524;8.390;2022-09-28T02:30:09;1.13;;;0.68;;
7338;SDS011;33747;49.524;8.390;2022-09-28T02:32:35;0.60;;;0.60;;
7338;SDS011;33747;49.524;8.390;2022-09-28T02:35:06;0.40;;;0.40;;
7338;SDS011;33747;49.524;8.390;2022-09-28T02:37:41;1.50;;;0.90;;
7338;SDS011;33747;49.524;8.390;2022-09-28T02:40:29;0.57;;;0.57;;
7338;SDS011;33747;49.524;8.390;2022-09-28T02:43:07;0.55;;;0.55;;
7338;SDS011;33747;49.524;8.390;2022-09-28T02:45:51;0.60;;;0.60;;
7338;SDS011;33747;49.524;8.390;2022-09-28T02:48:40;0.60;;;0.40;;
7338;SDS011;33747;49.524;8.390;2022-09-28T03:04:12;1.17;;;0.80;;
7338;SDS011;33747;49.524;8.390;2022-09-28T03:06:46;1.63;;;1.30;;
7338;SDS011;33747;49.524;8.390;2022-09-28T03:09:36;3.92;;;1.65;;
7338;SDS011;33747;49.524;8.390;2022-09-28T03:12:07;2.60;;;1.10;;
7338;SDS011;33747;49.524;8.390;2022-09-28T03:14:34;2.38;;;1.40;;
7338;SDS011;33747;49.524;8.390;2022-09-28T03:16:59;4.68;;;1.90;;
7338;SDS011;33747;49.524;8.390;2022-09-28T03:19:26;3.38;;;1.75;;
7338;SDS011;33747;49.524;8.390;2022-09-28T03:21:53;5.10;;;2.40;;
7338;SDS011;33747;49.524;8.390;2022-09-28T03:24:19;6.63;;;2.97;;
7338;SDS011;33747;49.524;8.390;2022-09-28T03:26:44;9.77;;;2.72;;
7338;SDS011;33747;49.524;8.390;2022-09-28T03:29:10;3.33;;;1.90;;
7338;SDS011;33747;49.524;8.390;2022-09-28T03:31:35;2.00;;;1.75;;
7338;SDS011;33747;49.524;8.390;2022-09-28T03:34:00;4.15;;;1.70;;
7338;SDS011;33747;49.524;8.390;2022-09-28T03:36:26;3.13;;;1.50;;
7338;SDS011;33747;49.524;8.390;2022-09-28T03:38:51;2.05;;;1.55;;
7338;SDS011;33747;49.524;8.390;2022-09-28T03:41:19;2.95;;;1.45;;
7338;SDS011;33747;49.524;8.390;2022-09-28T03:43:45;5.72;;;1.77;;
7338;SDS011;33747;49.524;8.390;2022-09-28T03:46:10;3.17;;;1.70;;
7338;SDS011;33747;49.524;8.390;2022-09-28T03:48:36;4.13;;;1.67;;
7338;SDS011;33747;49.524;8.390;2022-09-28T03:51:02;2.80;;;1.35;;
7338;SDS011;33747;49.524;8.390;2022-09-28T03:53:29;2.38;;;1.30;;
7338;SDS011;33747;49.524;8.390;2022-09-28T03:55:55;2.47;;;1.52;;
7338;SDS011;33747;49.524;8.390;2022-09-28T03:58:26;2.50;;;1.13;;
7338;SDS011;33747;49.524;8.390;2022-09-28T04:00:52;2.38;;;1.52;;
7338;SDS011;33747;49.524;8.390;2022-09-28T04:03:17;2.95;;;1.45;;
7338;SDS011;33747;49.524;8.390;2022-09-28T04:05:49;3.15;;;1.33;;
7338;SDS011;33747;49.524;8.390;2022-09-28T04:08:15;5.25;;;1.73;;
7338;SDS011;33747;49.524;8.390;2022-09-28T04:10:41;4.72;;;1.30;;
7338;SDS011;33747;49.524;8.390;2022-09-28T04:13:06;2.67;;;1.25;;
7338;SDS011;33747;49.524;8.390;2022-09-28T04:15:31;3.45;;;1.63;;
7338;SDS011;33747;49.524;8.390;2022-09-28T04:17:57;3.72;;;1.38;;
7338;SDS011;33747;49.524;8.390;2022-09-28T04:20:22;3.58;;;1.38;;
7338;SDS011;33747;49.524;8.390;2022-09-28T04:22:47;2.78;;;1.35;;
7338;SDS011;33747;49.524;8.390;2022-09-28T04:25:13;5.00;;;2.05;;
7338;SDS011;33747;49.524;8.390;2022-09-28T04:27:38;4.00;;;1.35;;
7338;SDS011;33747;49.524;8.390;2022-09-28T04:30:22;2.55;;;1.55;;
7338;SDS011;33747;49.524;8.390;2022-09-28T04:32:48;2.45;;;1.77;;
7338;SDS011;33747;49.524;8.390;2022-09-28T04:35:13;7.35;;;1.88;;
7338;SDS011;33747;49.524;8.390;2022-09-28T04:37:39;3.63;;;1.50;;
7338;SDS011;33747;49.524;8.390;2022-09-28T04:40:04;5.88;;;1.40;;
7338;SDS011;33747;49.524;8.390;2022-09-28T04:42:30;4.40;;;1.50;;
7338;SDS011;33747;49.524;8.390;2022-09-28T04:44:56;3.40;;;1.65;;
7338;SDS011;33747;49.524;8.390;2022-09-28T04:47:22;4.03;;;1.30;;
7338;SDS011;33747;49.524;8.390;2022-09-28T04:49:48;2.45;;;1.58;;
7338;SDS011;33747;49.524;8.390;2022-09-28T04:52:13;2.88;;;1.52;;
7338;SDS011;33747;49.524;8.390;2022-09-28T04:54:38;2.80;;;1.33;;
7338;SDS011;33747;49.524;8.390;2022-09-28T04:57:04;4.00;;;1.67;;
7338;SDS011;33747;49.524;8.390;2022-09-28T04:59:30;5.55;;;1.58;;
7338;SDS011;33747;49.524;8.390;2022-09-28T05:01:55;3.75;;;1.38;;
7338;SDS011;33747;49.524;8.390;2022-09-28T05:04:20;6.07;;;1.58;;
7338;SDS011;33747;49.524;8.390;2022-09-28T05:06:46;4.15;;;1.45;;
7338;SDS011;33747;49.524;8.390;2022-09-28T05:09:11;8.18;;;1.70;;
7338;SDS011;33747;49.524;8.390;2022-09-28T05:11:36;4.57;;;1.75;;
7338;SDS011;33747;49.524;8.390;2022-09-28T05:14:02;9.18;;;1.70;;
7338;SDS011;33747;49.524;8.390;2022-09-28T05:16:27;2.45;;;1.23;;
7338;SDS011;33747;49.524;8.390;2022-09-28T05:18:55;6.13;;;1.52;;
7338;SDS011;33747;49.524;8.390;2022-09-28T05:21:20;2.67;;;1.27;;
7338;SDS011;33747;49.524;8.390;2022-09-28T05:23:49;8.48;;;1.48;;
7338;SDS011;33747;49.524;8.390;2022-09-28T05:26:14;3.72;;;1.60;;
7338;SDS011;33747;49.524;8.390;2022-09-28T05:28:39;4.20;;;1.70;;
7338;SDS011;33747;49.524;8.390;2022-09-28T05:31:05;3.53;;;1.50;;
7338;SDS011;33747;49.524;8.390;2022-09-28T05:33:31;5.18;;;1.40;;
7338;SDS011;33747;49.524;8.390;2022-09-28T05:35:57;5.25;;;1.40;;
7338;SDS011;33747;49.524;8.390;2022-09-28T05:38:23;2.55;;;1.50;;
7338;SDS011;33747;49.524;8.390;2022-09-28T05:40:48;5.28;;;1.67;;
7338;SDS011;33747;49.524;8.390;2022-09-28T05:43:13;3.67;;;1.70;;
7338;SDS011;33747;49.524;8.390;2022-09-28T05:45:39;6.57;;;2.08;;
7338;SDS011;33747;49.524;8.390;2022-09-28T05:48:04;9.43;;;2.08;;
7338;SDS011;33747;49.524;8.390;2022-09-28T05:50:29;6.25;;;2.63;;
7338;SDS011;33747;49.524;8.390;2022-09-28T05:53:02;4.28;;;1.67;;
7338;SDS011;33747;49.524;8.390;2022-09-28T05:55:29;2.97;;;1.50;;
7338;SDS011;33747;49.524;8.390;2022-09-28T05:57:58;8.45;;;1.30;;
7338;SDS011;33747;49.524;8.390;2022-09-28T06:00:27;5.43;;;1.60;;
7338;SDS011;33747;49.524;8.390;2022-09-28T06:03:03;7.60;;;1.83;;
7338;SDS011;33747;49.524;8.390;2022-09-28T06:05:30;5.35;;;1.80;;
7338;SDS011;33747;49.524;8.390;2022-09-28T06:07:56;6.82;;;1.70;;
7338;SDS011;33747;49.524;8.390;2022-09-28T06:10:23;5.20;;;2.22;;
7338;SDS011;33747;49.524;8.390;2022-09-28T06:12:55;4.35;;;1.98;;
7338;SDS011;33747;49.524;8.390;2022-09-28T06:15:22;3.70;;;1.88;;
7338;SDS011;33747;49.524;8.390;2022-09-28T06:17:54;8.32;;;1.98;;
7338;SDS011;33747;49.524;8.390;2022-09-28T06:20:22;3.88;;;1.85;;
7338;SDS011;33747;49.524;8.390;2022-09-28T06:22:52;4.35;;;1.60;;
7338;SDS011;33747;49.524;8.390;2022-09-28T06:25:18;5.38;;;1.70;;
7338;SDS011;33747;49.524;8.390;2022-09-28T06:27:52;5.10;;;1.83;;
7338;SDS011;33747;49.524;8.390;2022-09-28T06:30:18;5.60;;;1.70;;
7338;SDS011;33747;49.524;8.390;2022-09-28T06:32:43;4.90;;;1.40;;
7338;SDS011;33747;49.524;8.390;2022-09-28T06:35:08;6.43;;;1.88;;
7338;SDS011;33747;49.524;8.390;2022-09-28T06:37:34;5.63;;;1.65;;
7338;SDS011;33747;49.524;8.390;2022-09-28T06:39:59;4.88;;;1.70;;
7338;SDS011;33747;49.524;8.390;2022-09-28T06:42:24;3.35;;;1.30;;
7338;SDS011;33747;49.524;8.390;2022-09-28T06:44:50;6.05;;;1.63;;
7338;SDS011;33747;49.524;8.390;2022-09-28T06:47:15;5.63;;;1.30;;
7338;SDS011;33747;49.524;8.390;2022-09-28T06:49:41;5.45;;;1.92;;
7338;SDS011;33747;49.524;8.390;2022-09-28T06:52:06;19.13;;;2.78;;
7338;SDS011;33747;49.524;8.390;2022-09-28T06:54:32;44.10;;;5.03;;
7338;SDS011;33747;49.524;8.390;2022-09-28T06:56:57;14.57;;;2.45;;
7338;SDS011;33747;49.524;8.390;2022-09-28T06:59:22;7.25;;;2.10;;
7338;SDS011;33747;49.524;8.390;2022-09-28T07:01:48;6.10;;;1.30;;
7338;SDS011;33747;49.524;8.390;2022-09-28T07:04:13;2.60;;;1.40;;
7338;SDS011;33747;49.524;8.390;2022-09-28T07:06:38;5.88;;;2.03;;
7338;SDS011;33747;49.524;8.390;2022-09-28T07:09:04;3.15;;;1.38;;
7338;SDS011;33747;49.524;8.390;2022-09-28T07:11:40;7.70;;;1.98;;
7338;SDS011;33747;49.524;8.390;2022-09-28T07:14:05;4.95;;;1.35;;
7338;SDS011;33747;49.524;8.390;2022-09-28T07:16:31;3.20;;;1.33;;
7338;SDS011;33747;49.524;8.390;2022-09-28T07:18:56;9.55;;;2.13;;
7338;SDS011;33747;49.524;8.390;2022-09-28T07:21:21;3.70;;;1.20;;
7338;SDS011;33747;49.524;8.390;2022-09-28T07:23:47;6.10;;;1.83;;
7338;SDS011;33747;49.524;8.390;2022-09-28T07:26:12;5.43;;;1.50;;
7338;SDS011;33747;49.524;8.390;2022-09-28T07:28:38;4.45;;;1.50;;
7338;SDS011;33747;49.524;8.390;2022-09-28T07:31:05;8.20;;;1.65;;
7338;SDS011;33747;49.524;8.390;2022-09-28T07:33:30;5.95;;;1.38;;
7338;SDS011;33747;49.524;8.390;2022-09-28T07:35:56;5.00;;;1.50;;
7338;SDS011;33747;49.524;8.390;2022-09-28T07:38:21;4.68;;;1.52;;
7338;SDS011;33747;49.524;8.390;2022-09-28T07:40:47;7.13;;;1.63;;
7338;SDS011;33747;49.524;8.390;2022-09-28T07:43:31;6.78;;;1.33;;
7338;SDS011;33747;49.524;8.390;2022-09-28T07:45:56;5.68;;;1.60;;
7338;SDS011;33747;49.524;8.390;2022-09-28T07:48:22;3.80;;;1.70;;
7338;SDS011;33747;49.524;8.390;2022-09-28T07:50:48;3.95;;;1.35;;
7338;SDS011;33747;49.524;8.390;2022-09-28T07:53:15;3.67;;;1.65;;
7338;SDS011;33747;49.524;8.390;2022-09-28T07:55:41;6.65;;;2.28;;
7338;SDS011;33747;49.524;8.390;2022-09-28T07:58:06;8.48;;;1.58;;
7338;SDS011;33747;49.524;8.390;2022-09-28T08:00:32;3.85;;;1.17;;
7338;SDS011;33747;49.524;8.390;2022-09-28T08:02:58;2.38;;;1.15;;
7338;SDS011;33747;49.524;8.390;2022-09-28T08:05:24;3.35;;;1.52;;
7338;SDS011;33747;49.524;8.390;2022-09-28T08:07:49;9.13;;;1.50;;
7338;SDS011;33747;49.524;8.390;2022-09-28T08:10:14;3.28;;;1.40;;
7338;SDS011;33747;49.524;8.390;2022-09-28T08:12:41;8.60;;;1.40;;
7338;SDS011;33747;49.524;8.390;2022-09-28T08:15:07;6.18;;;1.42;;
7338;SDS011;33747;49.524;8.390;2022-09-28T08:17:34;3.92;;;1.40;;
7338;SDS011;33747;49.524;8.390;2022-09-28T08:19:59;4.80;;;1.35;;
7338;SDS011;33747;49.524;8.390;2022-09-28T08:22:43;2.45;;;1.40;;
7338;SDS011;33747;49.524;8.390;2022-09-28T08:25:09;4.55;;;1.38;;
7338;SDS011;33747;49.524;8.390;2022-09-28T08:27:34;6.82;;;1.55;;
7338;SDS011;33747;49.524;8.390;2022-09-28T08:29:59;2.20;;;1.08;;
7338;SDS011;33747;49.524;8.390;2022-09-28T08:32:25;4.30;;;1.30;;
7338;SDS011;33747;49.524;8.390;2022-09-28T08:34:50;8.45;;;1.98;;
7338;SDS011;33747;49.524;8.390;2022-09-28T08:37:16;3.60;;;1.15;;
7338;SDS011;33747;49.524;8.390;2022-09-28T08:39:41;6.55;;;1.02;;
7338;SDS011;33747;49.524;8.390;2022-09-28T08:44:44;4.70;;;1.45;;
7338;SDS011;33747;49.524;8.390;2022-09-28T08:50:06;3.45;;;1.00;;
7338;SDS011;33747;49.524;8.390;2022-09-28T08:52:38;4.50;;;1.27;;
7338;SDS011;33747;49.524;8.390;2022-09-28T08:57:31;5.75;;;1.20;;
7338;SDS011;33747;49.524;8.390;2022-09-28T08:59:58;5.60;;;1.17;;
7338;SDS011;33747;49.524;8.390;2022-09-28T09:02:26;3.92;;;1.63;;
7338;SDS011;33747;49.524;8.390;2022-09-28T09:05:01;3.47;;;1.08;;
7338;SDS011;33747;49.524;8.390;2022-09-28T09:10:25;3.17;;;1.02;;
7338;SDS011;33747;49.524;8.390;2022-09-28T09:13:22;1.80;;;1.10;;
7338;SDS011;33747;49.524;8.390;2022-09-28T09:15:56;2.60;;;0.95;;
7338;SDS011;33747;49.524;8.390;2022-09-28T09:18:29;5.18;;;1.15;;
7338;SDS011;33747;49.524;8.390;2022-09-28T09:21:18;4.32;;;1.10;;
7338;SDS011;33747;49.524;8.390;2022-09-28T09:23:53;5.75;;;0.88;;
7338;SDS011;33747;49.524;8.390;2022-09-28T09:26:40;5.03;;;0.88;;
7338;SDS011;33747;49.524;8.390;2022-09-28T09:29:48;1.58;;;0.80;;
7338;SDS011;33747;49.524;8.390;2022-09-28T09:32:08;2.28;;;1.00;;
7338;SDS011;33747;49.524;8.390;2022-09-28T09:34:54;3.92;;;0.75;;
7338;SDS011;33747;49.524;8.390;2022-09-28T09:37:33;8.98;;;1.20;;
7338;SDS011;33747;49.524;8.390;2022-09-28T09:42:53;1.92;;;1.10;;
7338;SDS011;33747;49.524;8.390;2022-09-28T09:46:13;4.63;;;1.13;;
7338;SDS011;33747;49.524;8.390;2022-09-28T09:48:24;4.75;;;1.15;;
7338;SDS011;33747;49.524;8.390;2022-09-28T09:50:58;7.75;;;1.90;;
7338;SDS011;33747;49.524;8.390;2022-09-28T09:53:36;4.32;;;1.15;;
7338;SDS011;33747;49.524;8.390;2022-09-28T09:59:01;1.88;;;1.13;;
7338;SDS011;33747;49.524;8.390;2022-09-28T10:01:33;1.40;;;0.73;;
7338;SDS011;33747;49.524;8.390;2022-09-28T10:04:00;4.65;;;1.10;;
7338;SDS011;33747;49.524;8.390;2022-09-28T10:06:29;4.00;;;1.10;;
7338;SDS011;33747;49.524;8.390;2022-09-28T10:09:04;2.80;;;1.23;;
7338;SDS011;33747;49.524;8.390;2022-09-28T10:11:37;2.22;;;0.90;;
7338;SDS011;33747;49.524;8.390;2022-09-28T10:14:12;8.23;;;1.45;;
7338;SDS011;33747;49.524;8.390;2022-09-28T10:16:40;2.25;;;0.80;;
7338;SDS011;33747;49.524;8.390;2022-09-28T10:19:08;1.48;;;0.90;;
7338;SDS011;33747;49.524;8.390;2022-09-28T10:21:35;3.92;;;1.02;;
7338;SDS011;33747;49.524;8.390;2022-09-28T10:24:04;3.05;;;1.00;;
7338;SDS011;33747;49.524;8.390;2022-09-28T10:26:36;3.17;;;1.15;;
7338;SDS011;33747;49.524;8.390;2022-09-28T10:29:04;4.78;;;1.25;;
7338;SDS011;33747;49.524;8.390;2022-09-28T10:34:06;4.82;;;1.45;;
7338;SDS011;33747;49.524;8.390;2022-09-28T10:36:33;3.42;;;1.40;;
7338;SDS011;33747;49.524;8.390;2022-09-28T10:39:26;2.17;;;0.80;;
7338;SDS011;33747;49.524;8.390;2022-09-28T10:41:54;5.72;;;1.00;;
7338;SDS011;33747;49.524;8.390;2022-09-28T10:44:19;8.00;;;1.85;;
7338;SDS011;33747;49.524;8.390;2022-09-28T10:46:45;7.40;;;1.60;;
7338;SDS011;33747;49.524;8.390;2022-09-28T10:49:19;4.18;;;1.08;;
7338;SDS011;33747;49.524;8.390;2022-09-28T10:51:49;2.03;;;0.93;;
7338;SDS011;33747;49.524;8.390;2022-09-28T10:54:18;5.68;;;1.30;;
7338;SDS011;33747;49.524;8.390;2022-09-28T10:56:45;2.60;;;0.88;;
7338;SDS011;33747;49.524;8.390;2022-09-28T10:59:28;2.40;;;1.30;;
7338;SDS011;33747;49.524;8.390;2022-09-28T11:04:55;3.00;;;0.98;;
7338;SDS011;33747;49.524;8.390;2022-09-28T11:07:22;3.95;;;0.90;;
7338;SDS011;33747;49.524;8.390;2022-09-28T11:09:50;5.35;;;0.82;;
7338;SDS011;33747;49.524;8.390;2022-09-28T11:12:26;4.07;;;0.80;;
7338;SDS011;33747;49.524;8.390;2022-09-28T11:15:03;6.45;;;1.33;;
7338;SDS011;33747;49.524;8.390;2022-09-28T11:20:00;5.47;;;1.25;;
7338;SDS011;33747;49.524;8.390;2022-09-28T11:26:03;3.03;;;0.70;;
7338;SDS011;33747;49.524;8.390;2022-09-28T11:28:31;4.22;;;1.15;;
7338;SDS011;33747;49.524;8.390;2022-09-28T11:31:01;2.10;;;0.70;;
7338;SDS011;33747;49.524;8.390;2022-09-28T11:33:31;0.60;;;0.55;;
7338;SDS011;33747;49.524;8.390;2022-09-28T11:36:12;1.85;;;1.17;;
7338;SDS011;33747;49.524;8.390;2022-09-28T11:39:01;4.13;;;0.80;;
7338;SDS011;33747;49.524;8.390;2022-09-28T11:41:42;3.15;;;1.05;;
7338;SDS011;33747;49.524;8.390;2022-09-28T11:44:40;4.47;;;0.70;;
7338;SDS011;33747;49.524;8.390;2022-09-28T11:47:46;2.10;;;0.77;;
7338;SDS011;33747;49.524;8.390;2022-09-28T11:53:11;3.30;;;0.70;;
7338;SDS011;33747;49.524;8.390;2022-09-28T11:55:53;2.65;;;0.90;;
7338;SDS011;33747;49.524;8.390;2022-09-28T11:58:30;0.93;;;0.90;;
7338;SDS011;33747;49.524;8.390;2022-09-28T12:00:59;4.75;;;1.30;;
7338;SDS011;33747;49.524;8.390;2022-09-28T12:03:30;2.80;;;0.80;;
7338;SDS011;33747;49.524;8.390;2022-09-28T12:06:01;2.08;;;0.70;;
7338;SDS011;33747;49.524;8.390;2022-09-28T12:08:30;2.25;;;1.08;;
7338;SDS011;33747;49.524;8.390;2022-09-28T12:11:00;2.72;;;1.10;;
7338;SDS011;33747;49.524;8.390;2022-09-28T12:13:33;2.72;;;1.25;;
7338;SDS011;33747;49.524;8.390;2022-09-28T12:18:36;2.15;;;0.60;;
7338;SDS011;33747;49.524;8.390;2022-09-28T12:24:37;2.80;;;0.70;;
7338;SDS011;33747;49.524;8.390;2022-09-28T12:27:02;2.37;;;1.00;;
7338;SDS011;33747;49.524;8.390;2022-09-28T12:29:37;1.30;;;0.80;;
7338;SDS011;33747;49.524;8.390;2022-09-28T12:34:54;3.10;;;1.02;;
7338;SDS011;33747;49.524;8.390;2022-09-28T12:37:36;4.72;;;1.08;;
7338;SDS011;33747;49.524;8.390;2022-09-28T12:40:40;3.63;;;1.10;;
7338;SDS011;33747;49.524;8.390;2022-09-28T12:48:50;2.50;;;0.90;;
7338;SDS011;33747;49.524;8.390;2022-09-28T12:51:28;5.97;;;1.27;;
7338;SDS011;33747;49.524;8.390;2022-09-28T13:00:01;3.20;;;1.00;;
7338;SDS011;33747;49.524;8.390;2022-09-28T13:05:03;1.92;;;0.90;;
7338;SDS011;33747;49.524;8.390;2022-09-28T13:10:25;2.55;;;0.80;;
7338;SDS011;33747;49.524;8.390;2022-09-28T13:18:36;2.67;;;1.00;;
7338;SDS011;33747;49.524;8.390;2022-09-28T13:23:41;3.22;;;0.80;;
7338;SDS011;33747;49.524;8.390;2022-09-28T13:26:11;1.73;;;0.95;;
7338;SDS011;33747;49.524;8.390;2022-09-28T13:28:49;2.17;;;1.08;;
7338;SDS011;33747;49.524;8.390;2022-09-28T13:31:16;3.70;;;1.13;;
7338;SDS011;33747;49.524;8.390;2022-09-28T13:33:44;5.22;;;0.88;;
7338;SDS011;33747;49.524;8.390;2022-09-28T13:38:51;3.25;;;1.10;;
7338;SDS011;33747;49.524;8.390;2022-09-28T13:41:18;3.15;;;0.90;;
7338;SDS011;33747;49.524;8.390;2022-09-28T13:49:23;2.00;;;0.90;;
7338;SDS011;33747;49.524;8.390;2022-09-28T13:52:11;3.83;;;1.27;;
7338;SDS011;33747;49.524;8.390;2022-09-28T13:54:49;4.20;;;0.77;;
7338;SDS011;33747;49.524;8.390;2022-09-28T13:57:43;1.95;;;0.88;;
7338;SDS011;33747;49.524;8.390;2022-09-28T14:00:16;6.03;;;1.20;;
7338;SDS011;33747;49.524;8.390;2022-09-28T14:03:11;1.40;;;0.88;;
7338;SDS011;33747;49.524;8.390;2022-09-28T14:13:58;3.58;;;1.10;;
7338;SDS011;33747;49.524;8.390;2022-09-28T14:16:36;1.52;;;0.85;;
7338;SDS011;33747;49.524;8.390;2022-09-28T14:19:07;4.53;;;1.00;;
7338;SDS011;33747;49.524;8.390;2022-09-28T14:24:40;3.80;;;0.80;;
7338;SDS011;33747;49.524;8.390;2022-09-28T14:27:31;3.72;;;0.82;;
7338;SDS011;33747;49.524;8.390;2022-09-28T14:30:23;1.63;;;1.08;;
7338;SDS011;33747;49.524;8.390;2022-09-28T14:32:57;1.48;;;0.88;;
7338;SDS011;33747;49.524;8.390;2022-09-28T14:35:33;1.95;;;1.15;;
7338;SDS011;33747;49.524;8.390;2022-09-28T14:38:05;3.60;;;1.10;;
7338;SDS011;33747;49.524;8.390;2022-09-28T14:40:58;2.33;;;1.13;;
7338;SDS011;33747;49.524;8.390;2022-09-28T14:54:01;2.17;;;0.80;;
7338;SDS011;33747;49.524;8.390;2022-09-28T14:56:29;1.95;;;0.80;;
7338;SDS011;33747;49.524;8.390;2022-09-28T14:58:57;1.67;;;1.00;;
7338;SDS011;33747;49.524;8.390;2022-09-28T15:01:23;5.05;;;1.08;;
7338;SDS011;33747;49.524;8.390;2022-09-28T15:03:57;3.05;;;1.17;;
7338;SDS011;33747;49.524;8.390;2022-09-28T15:06:23;2.67;;;1.05;;
7338;SDS011;33747;49.524;8.390;2022-09-28T15:08:49;1.73;;;0.80;;
7338;SDS011;33747;49.524;8.390;2022-09-28T15:11:15;7.32;;;1.23;;
7338;SDS011;33747;49.524;8.390;2022-09-28T15:13:43;2.38;;;1.00;;
7338;SDS011;33747;49.524;8.390;2022-09-28T15:16:10;5.55;;;1.20;;
7338;SDS011;33747;49.524;8.390;2022-09-28T15:21:18;3.63;;;0.70;;
7338;SDS011;33747;49.524;8.390;2022-09-28T15:23:44;2.65;;;1.20;;
7338;SDS011;33747;49.524;8.390;2022-09-28T15:26:24;2.80;;;1.13;;
7338;SDS011;33747;49.524;8.390;2022-09-28T15:28:52;4.15;;;1.33;;
7338;SDS011;33747;49.524;8.390;2022-09-28T15:31:19;6.97;;;1.55;;
7338;SDS011;33747;49.524;8.390;2022-09-28T15:33:46;1.25;;;0.90;;
7338;SDS011;33747;49.524;8.390;2022-09-28T15:36:31;0.82;;;0.82;;
7338;SDS011;33747;49.524;8.390;2022-09-28T15:38:59;2.28;;;1.05;;
7338;SDS011;33747;49.524;8.390;2022-09-28T15:41:25;2.03;;;1.02;;
7338;SDS011;33747;49.524;8.390;2022-09-28T15:44:05;2.58;;;1.02;;
7338;SDS011;33747;49.524;8.390;2022-09-28T15:46:32;6.03;;;1.40;;
7338;SDS011;33747;49.524;8.390;2022-09-28T15:48:58;2.42;;;1.27;;
7338;SDS011;33747;49.524;8.390;2022-09-28T15:51:26;2.83;;;0.80;;
7338;SDS011;33747;49.524;8.390;2022-09-28T15:54:03;3.05;;;0.73;;
7338;SDS011;33747;49.524;8.390;2022-09-28T15:56:48;3.42;;;1.17;;
7338;SDS011;33747;49.524;8.390;2022-09-28T15:59:33;1.10;;;0.98;;
7338;SDS011;33747;49.524;8.390;2022-09-28T16:04:36;3.33;;;1.10;;
7338;SDS011;33747;49.524;8.390;2022-09-28T16:07:18;2.15;;;0.90;;
7338;SDS011;33747;49.524;8.390;2022-09-28T16:09:54;3.63;;;0.80;;
7338;SDS011;33747;49.524;8.390;2022-09-28T16:12:19;2.88;;;1.10;;
7338;SDS011;33747;49.524;8.390;2022-09-28T16:14:49;3.92;;;0.95;;
7338;SDS011;33747;49.524;8.390;2022-09-28T16:17:16;4.65;;;0.90;;
7338;SDS011;33747;49.524;8.390;2022-09-28T16:19:45;2.38;;;1.25;;
7338;SDS011;33747;49.524;8.390;2022-09-28T16:22:13;4.93;;;1.00;;
7338;SDS011;33747;49.524;8.390;2022-09-28T16:24:49;2.63;;;1.00;;
7338;SDS011;33747;49.524;8.390;2022-09-28T16:27:26;4.63;;;0.80;;
7338;SDS011;33747;49.524;8.390;2022-09-28T16:32:56;1.40;;;0.70;;
7338;SDS011;33747;49.524;8.390;2022-09-28T16:35:26;2.45;;;1.45;;
7338;SDS011;33747;49.524;8.390;2022-09-28T16:38:01;3.28;;;1.00;;
7338;SDS011;33747;49.524;8.390;2022-09-28T16:40:29;2.80;;;1.15;;
7338;SDS011;33747;49.524;8.390;2022-09-28T16:42:56;2.17;;;0.93;;
7338;SDS011;33747;49.524;8.390;2022-09-28T16:45:23;2.47;;;1.42;;
7338;SDS011;33747;49.524;8.390;2022-09-28T16:47:48;3.22;;;0.80;;
7338;SDS011;33747;49.524;8.390;2022-09-28T16:50:18;6.82;;;2.60;;
7338;SDS011;33747;49.524;8.390;2022-09-28T16:52:46;6.50;;;3.08;;
7338;SDS011;33747;49.524;8.390;2022-09-28T16:55:32;6.03;;;2.58;;
7338;SDS011;33747;49.524;8.390;2022-09-28T16:57:57;4.22;;;2.53;;
7338;SDS011;33747;49.524;8.390;2022-09-28T17:00:23;4.40;;;2.00;;
7338;SDS011;33747;49.524;8.390;2022-09-28T17:02:49;4.00;;;1.95;;
7338;SDS011;33747;49.524;8.390;2022-09-28T17:05:15;7.90;;;1.90;;
7338;SDS011;33747;49.524;8.390;2022-09-28T17:07:42;6.85;;;1.77;;
7338;SDS011;33747;49.524;8.390;2022-09-28T17:10:12;3.10;;;1.30;;
7338;SDS011;33747;49.524;8.390;2022-09-28T17:12:40;5.53;;;1.80;;
7338;SDS011;33747;49.524;8.390;2022-09-28T17:15:05;2.97;;;1.42;;
7338;SDS011;33747;49.524;8.390;2022-09-28T17:17:31;5.40;;;0.98;;
7338;SDS011;33747;49.524;8.390;2022-09-28T17:19:56;2.22;;;1.50;;
7338;SDS011;33747;49.524;8.390;2022-09-28T17:22:21;8.38;;;2.17;;
7338;SDS011;33747;49.524;8.390;2022-09-28T17:24:47;3.95;;;1.95;;
7338;SDS011;33747;49.524;8.390;2022-09-28T17:27:14;2.38;;;1.33;;
7338;SDS011;33747;49.524;8.390;2022-09-28T17:29:40;4.72;;;1.50;;
7338;SDS011;33747;49.524;8.390;2022-09-28T17:32:18;4.00;;;1.30;;
7338;SDS011;33747;49.524;8.390;2022-09-28T17:34:43;1.58;;;1.23;;